Northern Expedition — CFN5364 — position and weather

sailwx.info

Track history (hours):
 
Tides and Currents Weather Stations Pressure Air Temp Water Temp Dewpoint Dewpoint Depression Visibility Wind Speed Wind Dir Waves Ship Positions

Northern Expedition

Last reported at 2017-Jun-23 21:21 UTC. Time now 2017-Jun-23 22:17 UTC.
Position N 52°28' W 128°27'.

Length 151 m; draft 5 m.

Type: Ship. MMSI: 316014054.

Date/timePositionNaut miles runAvg speedWind from/ knotsBaromVisibWave heightAir tempDewpointWater temp
2017-Jun-23 21:21N 52°28' W 128°27'719.3
2017-Jun-23 21:00N 52°22' W 128°32'1617.7
2017-Jun-23 20:05N 52°13' W 128°09'4 9.3
2017-Jun-23 19:38N 52°09' W 128°08'1 9.0
2017-Jun-23 19:30N 52°08' W 128°08'815.7
2017-Jun-23 18:58N 52°04' W 127°56'918.9
2017-Jun-23 18:30N 51°55' W 127°56'1020.0
2017-Jun-23 18:00N 51°45' W 127°55'1020.1
2017-Jun-23 17:30N 51°35' W 127°52'1019.4
2017-Jun-23 17:00N 51°25' W 127°51'1119.6
2017-Jun-23 16:28N 51°15' W 127°52'919.5
2017-Jun-23 16:00N 51°06' W 127°48'1019.7
2017-Jun-23 15:30N 50°57' W 127°43'1020.9
2017-Jun-23 15:00N 50°51' W 127°30'7 5.5
2017-Jun-23 13:43N 50°44' W 127°27'0 0.0
2017-Jun-23 13:25N 50°44' W 127°27'0 0.0
2017-Jun-23 12:42N 50°44' W 127°27'0 0.0
2017-Jun-23 12:30N 50°44' W 127°27'0 0.0
2017-Jun-23 11:54N 50°44' W 127°27'0 0.0
2017-Jun-23 11:30N 50°44' W 127°27'0 0.0
2017-Jun-23 10:54N 50°44' W 127°27'0 0.0
2017-Jun-23 10:23N 50°44' W 127°27'0 0.0
2017-Jun-23 09:59N 50°44' W 127°27'0 0.0
2017-Jun-23 09:29N 50°44' W 127°27'0 0.0
2017-Jun-23 08:59N 50°44' W 127°27'0 0.0
2017-Jun-23 08:29N 50°44' W 127°27'0 0.0
2017-Jun-23 07:58N 50°44' W 127°27'0 0.0
2017-Jun-23 07:28N 50°44' W 127°27'0 0.0
2017-Jun-23 06:58N 50°44' W 127°27'0 0.0
2017-Jun-23 06:22N 50°44' W 127°27'0 0.0
2017-Jun-23 05:59N 50°44' W 127°27'510.4
2017-Jun-23 05:30N 50°48' W 127°26'1020.7
2017-Jun-23 05:00N 50°55' W 127°39'1019.7
2017-Jun-23 04:30N 51°03' W 127°48'1020.6
2017-Jun-23 04:00N 51°13' W 127°52'1120.5
2017-Jun-23 03:29N 51°24' W 127°52'1021.2
2017-Jun-23 03:01N 51°34' W 127°52'1121.3
2017-Jun-23 02:30N 51°44' W 127°56'1121.2
2017-Jun-23 02:00N 51°55' W 127°56'1215.5
2017-Jun-23 01:15N 52°05' W 128°06'4 2.4
2017-Jun-22 23:35N 52°08' W 128°08'1111.7
2017-Jun-22 22:40N 52°15' W 128°22'318.6
2017-Jun-22 22:30N 52°16' W 128°27'1117.9
2017-Jun-22 21:55N 52°27' W 128°28'0 0.0
2017-Jun-21 23:07N 52°27' W 128°28'220.1
2017-Jun-21 23:00N 52°25' W 128°30'917.3
2017-Jun-21 22:30N 52°16' W 128°31'1419.9
2017-Jun-21 21:50N 52°13' W 128°09'5 2.6
2017-Jun-21 19:53N 52°08' W 128°08'915.8
2017-Jun-21 19:19N 52°04' W 127°56'619.7
2017-Jun-21 19:00N 51°58' W 127°56'1020.4
2017-Jun-21 18:31N 51°47' W 127°56'1019.9
2017-Jun-21 18:00N 51°38' W 127°53'1120.0
2017-Jun-21 17:29N 51°27' W 127°51'22 1.8
2017-Jun-21 04:48N 51°05' W 127°48'719.8
2017-Jun-21 04:26N 51°12' W 127°52'1119.3
2017-Jun-21 03:53N 51°22' W 127°51'819.7
2017-Jun-21 03:30N 51°30' W 127°51'1020.2
2017-Jun-21 03:00N 51°40' W 127°54'1020.3
2017-Jun-21 02:30N 51°50' W 127°55'1019.8
2017-Jun-21 02:00N 52°00' W 127°56'29 1.1
2017-Jun-19 22:56N 52°19' W 128°30'18 5.9
2017-Jun-19 19:54N 52°08' W 128°08'817.2
2017-Jun-19 19:25N 52°04' W 127°56'819.2
2017-Jun-19 19:00N 51°56' W 127°56'1020.6
2017-Jun-19 18:30N 51°46' W 127°55'1020.0
2017-Jun-19 18:00N 51°36' W 127°52'1019.7
2017-Jun-19 17:30N 51°26' W 127°51'101 2.3
2017-Jun-17 20:48N 50°22' W 125°46'515.3
2017-Jun-17 20:30N 50°22' W 125°39'816.6
2017-Jun-17 20:00N 50°20' W 125°27'917.0
2017-Jun-17 19:30N 50°12' W 125°22'918.3
2017-Jun-17 19:00N 50°04' W 125°16'713.7
2017-Jun-17 18:30N 49°58' W 125°11'4 8.3
2017-Jun-17 18:00N 49°56' W 125°05'4 8.1
2017-Jun-17 17:30N 49°53' W 125°01'4 8.3
2017-Jun-17 17:00N 49°50' W 124°56'5 9.2
2017-Jun-17 16:30N 49°47' W 124°51'5 9.3
2017-Jun-17 16:00N 49°45' W 124°45'5 9.2
2017-Jun-17 15:30N 49°42' W 124°39'5 8.8
2017-Jun-17 15:00N 49°39' W 124°33'5 9.0
2017-Jun-17 14:27N 49°36' W 124°27'18 8.2
2017-Jun-17 12:13N 49°26' W 124°03'13 8.0
2017-Jun-17 10:36N 49°20' W 123°46'215.1
2017-Jun-17 10:29N 49°19' W 123°44'1020.5
2017-Jun-17 10:00N 49°11' W 123°35'715.0
2017-Jun-17 09:30N 49°06' W 123°27'5 9.4
2017-Jun-17 09:00N 49°05' W 123°20'0 0.8
2017-Jun-17 08:25N 49°05' W 123°20'0 0.7
2017-Jun-17 08:00N 49°05' W 123°19'1 2.9
2017-Jun-17 07:30N 49°04' W 123°21'510.0
2017-Jun-17 07:00N 49°06' W 123°28'0 0.6
2017-Jun-17 06:30N 49°06' W 123°28'714.8
2017-Jun-17 06:00N 49°07' W 123°17'510.6
2017-Jun-17 05:30N 49°07' W 123°09'3 5.3
2017-Jun-17 05:00N 49°07' W 123°05'0 0.4
2017-Jun-17 04:30N 49°07' W 123°05'0 0.0
2017-Jun-17 04:00N 49°07' W 123°05'0 0.0
2017-Jun-17 03:30N 49°07' W 123°05'0 0.0
2017-Jun-17 03:00N 49°07' W 123°05'0 0.0
2017-Jun-17 02:30N 49°07' W 123°05'0 0.0
2017-Jun-17 02:01N 49°07' W 123°05'0 0.0
2017-Jun-17 01:30N 49°07' W 123°05'0 0.0
2017-Jun-17 01:00N 49°07' W 123°05'0 0.0
2017-Jun-17 00:29N 49°07' W 123°05'0 0.0
2017-Jun-17 00:00N 49°07' W 123°05'0 0.0
2017-Jun-16 23:29N 49°07' W 123°05'0 0.0
2017-Jun-16 23:01N 49°07' W 123°05'0 0.0
2017-Jun-16 22:28N 49°07' W 123°05'0 0.0
2017-Jun-16 21:51N 49°07' W 123°05'0 0.0
2017-Jun-16 21:30N 49°07' W 123°05'0 0.0
2017-Jun-16 20:58N 49°07' W 123°05'0 0.0
2017-Jun-16 20:28N 49°07' W 123°05'0 0.0
2017-Jun-16 20:00N 49°07' W 123°05'0 0.0
2017-Jun-16 19:28N 49°07' W 123°05'0 0.0
2017-Jun-16 18:58N 49°07' W 123°05'0 0.0
2017-Jun-16 18:30N 49°07' W 123°05'0 0.0
2017-Jun-16 18:00N 49°07' W 123°05'0 0.0
2017-Jun-16 17:30N 49°07' W 123°05'0 0.0
2017-Jun-16 17:00N 49°07' W 123°05'0 0.0
2017-Jun-16 16:29N 49°07' W 123°05'0 0.0
2017-Jun-16 15:59N 49°07' W 123°05'0 0.0
2017-Jun-16 15:26N 49°07' W 123°05'0 0.0
2017-Jun-16 14:59N 49°07' W 123°05'0 0.0
2017-Jun-16 14:25N 49°07' W 123°05'0 0.0
2017-Jun-16 13:19N 49°07' W 123°05'0 0.0
2017-Jun-16 12:31N 49°07' W 123°05'0 0.0
2017-Jun-16 03:54N 49°07' W 123°05'0 0.0
2017-Jun-16 03:24N 49°07' W 123°05'0 0.0
2017-Jun-16 01:59N 49°07' W 123°05'0 0.0
2017-Jun-16 01:29N 49°07' W 123°05'0 0.0
2017-Jun-16 00:59N 49°07' W 123°05'0 0.0
2017-Jun-16 00:22N 49°07' W 123°05'0 0.0
2017-Jun-15 23:40N 49°07' W 123°05'0 0.0
2017-Jun-15 23:28N 49°07' W 123°05'0 0.0
2017-Jun-15 22:58N 49°07' W 123°05'0 0.0
2017-Jun-15 22:28N 49°07' W 123°05'0 0.0
2017-Jun-15 22:00N 49°07' W 123°05'0 0.0
2017-Jun-15 21:30N 49°07' W 123°05'0 0.0
2017-Jun-15 21:00N 49°07' W 123°05'0 0.0
2017-Jun-15 20:30N 49°07' W 123°05'0 0.0
2017-Jun-15 20:00N 49°07' W 123°05'0 0.0
2017-Jun-15 19:29N 49°07' W 123°05'0 0.0
2017-Jun-15 18:59N 49°07' W 123°05'0 0.0
2017-Jun-15 18:29N 49°07' W 123°05'0 0.0
2017-Jun-15 17:59N 49°07' W 123°05'0 0.0
2017-Jun-15 17:28N 49°07' W 123°05'0 0.0
2017-Jun-15 16:58N 49°07' W 123°05'0 0.0
2017-Jun-15 16:28N 49°07' W 123°05'0 0.0
2017-Jun-15 15:55N 49°07' W 123°05'0 0.0
2017-Jun-15 15:28N 49°07' W 123°05'0 0.0
2017-Jun-15 15:00N 49°07' W 123°05'0 0.0
2017-Jun-15 14:30N 49°07' W 123°05'0 0.0
2017-Jun-15 13:30N 49°07' W 123°05'0 0.0
2017-Jun-15 12:59N 49°07' W 123°05'0 0.0
2017-Jun-15 12:26N 49°07' W 123°05'0 0.0
2017-Jun-15 11:59N 49°07' W 123°05'0 0.0
2017-Jun-15 11:23N 49°07' W 123°05'0 0.0
2017-Jun-15 10:53N 49°07' W 123°05'0 0.0
2017-Jun-15 10:22N 49°07' W 123°05'0 0.0
2017-Jun-15 09:58N 49°07' W 123°05'0 0.0
2017-Jun-15 09:28N 49°07' W 123°05'0 0.0
2017-Jun-15 07:15N 49°07' W 123°05'0 0.0
2017-Jun-15 06:15N 49°07' W 123°05'0 0.0
2017-Jun-15 05:50N 49°07' W 123°05'0 0.0
2017-Jun-15 04:32N 49°07' W 123°05'0 0.0
2017-Jun-15 04:26N 49°07' W 123°05'0 0.0
2017-Jun-15 03:59N 49°07' W 123°05'0 0.0
2017-Jun-15 02:55N 49°07' W 123°05'0 0.0
2017-Jun-15 02:25N 49°07' W 123°05'0 0.0
2017-Jun-15 01:55N 49°07' W 123°05'0 0.0
2017-Jun-15 01:24N 49°07' W 123°05'0 0.0
2017-Jun-15 00:48N 49°07' W 123°05'0 0.0
2017-Jun-15 00:30N 49°07' W 123°05'0 0.0
2017-Jun-14 23:54N 49°07' W 123°05'0 0.0
2017-Jun-14 23:30N 49°07' W 123°05'0 0.0
2017-Jun-14 22:59N 49°07' W 123°05'0 0.0
2017-Jun-14 22:29N 49°07' W 123°05'0 0.0
2017-Jun-14 21:59N 49°07' W 123°05'0 0.0
2017-Jun-14 21:29N 49°07' W 123°05'0 0.0
2017-Jun-14 20:59N 49°07' W 123°05'0 0.0
2017-Jun-14 20:28N 49°07' W 123°05'0 0.0
2017-Jun-14 19:55N 49°07' W 123°05'0 0.0
2017-Jun-14 19:28N 49°07' W 123°05'0 0.0
2017-Jun-14 18:55N 49°07' W 123°05'0 0.0
2017-Jun-14 18:30N 49°07' W 123°05'0 0.0
2017-Jun-14 17:57N 49°07' W 123°05'0 0.0
2017-Jun-14 17:30N 49°07' W 123°05'0 0.0
2017-Jun-14 17:00N 49°07' W 123°05'0 0.0
2017-Jun-14 16:30N 49°07' W 123°05'0 0.0
2017-Jun-14 15:59N 49°07' W 123°05'0 0.0
2017-Jun-14 15:23N 49°07' W 123°05'0 0.0
2017-Jun-14 14:59N 49°07' W 123°05'0 0.0
2017-Jun-14 14:29N 49°07' W 123°05'0 0.0
2017-Jun-14 13:28N 49°07' W 123°05'0 0.0
2017-Jun-14 12:58N 49°07' W 123°05'0 0.0
2017-Jun-14 12:25N 49°07' W 123°05'0 0.0
2017-Jun-14 11:58N 49°07' W 123°05'0 0.0
2017-Jun-14 11:30N 49°07' W 123°05'0 0.0
2017-Jun-14 10:57N 49°07' W 123°05'0 0.0
2017-Jun-14 10:30N 49°07' W 123°05'0 0.0
2017-Jun-14 10:00N 49°07' W 123°05'0 0.0
2017-Jun-14 09:27N 49°07' W 123°05'0 0.0
2017-Jun-14 08:59N 49°07' W 123°05'0 0.0
2017-Jun-14 08:23N 49°07' W 123°05'0 0.0
2017-Jun-14 07:59N 49°07' W 123°05'0 0.0
2017-Jun-14 07:26N 49°07' W 123°05'0 0.0
2017-Jun-14 06:58N 49°07' W 123°05'0 0.0
2017-Jun-14 06:28N 49°07' W 123°05'0 0.0
2017-Jun-14 05:58N 49°07' W 123°05'0 0.0
2017-Jun-14 05:28N 49°07' W 123°05'0 0.0
2017-Jun-14 04:58N 49°07' W 123°05'0 0.0
2017-Jun-14 04:30N 49°07' W 123°05'0 0.0
2017-Jun-14 04:00N 49°07' W 123°05'0 0.0
2017-Jun-14 03:24N 49°07' W 123°05'0 0.0
2017-Jun-14 02:36N 49°07' W 123°05'0 0.0
2017-Jun-14 02:08N 49°07' W 123°05'0 0.0
2017-Jun-14 01:59N 49°07' W 123°05'0 0.0
2017-Jun-14 01:29N 49°07' W 123°05'0 0.0
2017-Jun-14 00:59N 49°07' W 123°05'0 0.0
2017-Jun-14 00:29N 49°07' W 123°05'0 0.0
2017-Jun-13 23:58N 49°07' W 123°05'0 0.0
2017-Jun-13 23:25N 49°07' W 123°05'0 0.0
2017-Jun-13 22:58N 49°07' W 123°05'0 0.0
2017-Jun-13 22:28N 49°07' W 123°05'0 0.0
2017-Jun-13 21:58N 49°07' W 123°05'0 0.0
2017-Jun-13 21:30N 49°07' W 123°05'  
Track history (hours):
 
Tides and Currents Weather Stations Pressure Air Temp Water Temp Dewpoint Dewpoint Depression Visibility Wind Speed Wind Dir Waves Ship Positions

Northern Expedition

Last reported at 2017-Jun-23 21:21 UTC. Time now 2017-Jun-23 22:17 UTC.
Position N 52°28' W 128°27'.

Length 151 m; draft 5 m.

Type: Ship. MMSI: 316014054.

Date/timePositionNaut miles runAvg speedWind from/ knotsBaromVisibWave heightAir tempDewpointWater temp
2017-Jun-23 21:21N 52°28' W 128°27'719.3
2017-Jun-23 21:00N 52°22' W 128°32'1617.7
2017-Jun-23 20:05N 52°13' W 128°09'4 9.3
2017-Jun-23 19:38N 52°09' W 128°08'1 9.0
2017-Jun-23 19:30N 52°08' W 128°08'815.7
2017-Jun-23 18:58N 52°04' W 127°56'918.9
2017-Jun-23 18:30N 51°55' W 127°56'1020.0
2017-Jun-23 18:00N 51°45' W 127°55'1020.1
2017-Jun-23 17:30N 51°35' W 127°52'1019.4
2017-Jun-23 17:00N 51°25' W 127°51'1119.6
2017-Jun-23 16:28N 51°15' W 127°52'919.5
2017-Jun-23 16:00N 51°06' W 127°48'1019.7
2017-Jun-23 15:30N 50°57' W 127°43'1020.9
2017-Jun-23 15:00N 50°51' W 127°30'7 5.5
2017-Jun-23 13:43N 50°44' W 127°27'0 0.0
2017-Jun-23 13:25N 50°44' W 127°27'0 0.0
2017-Jun-23 12:42N 50°44' W 127°27'0 0.0
2017-Jun-23 12:30N 50°44' W 127°27'0 0.0
2017-Jun-23 11:54N 50°44' W 127°27'0 0.0
2017-Jun-23 11:30N 50°44' W 127°27'0 0.0
2017-Jun-23 10:54N 50°44' W 127°27'0 0.0
2017-Jun-23 10:23N 50°44' W 127°27'0 0.0
2017-Jun-23 09:59N 50°44' W 127°27'0 0.0
2017-Jun-23 09:29N 50°44' W 127°27'0 0.0
2017-Jun-23 08:59N 50°44' W 127°27'0 0.0
2017-Jun-23 08:29N 50°44' W 127°27'0 0.0
2017-Jun-23 07:58N 50°44' W 127°27'0 0.0
2017-Jun-23 07:28N 50°44' W 127°27'0 0.0
2017-Jun-23 06:58N 50°44' W 127°27'0 0.0
2017-Jun-23 06:22N 50°44' W 127°27'0 0.0
2017-Jun-23 05:59N 50°44' W 127°27'510.4
2017-Jun-23 05:30N 50°48' W 127°26'1020.7
2017-Jun-23 05:00N 50°55' W 127°39'1019.7
2017-Jun-23 04:30N 51°03' W 127°48'1020.6
2017-Jun-23 04:00N 51°13' W 127°52'1120.5
2017-Jun-23 03:29N 51°24' W 127°52'1021.2
2017-Jun-23 03:01N 51°34' W 127°52'1121.3
2017-Jun-23 02:30N 51°44' W 127°56'1121.2
2017-Jun-23 02:00N 51°55' W 127°56'1215.5
2017-Jun-23 01:15N 52°05' W 128°06'4 2.4
2017-Jun-22 23:35N 52°08' W 128°08'1111.7
2017-Jun-22 22:40N 52°15' W 128°22'318.6
2017-Jun-22 22:30N 52°16' W 128°27'1117.9
2017-Jun-22 21:55N 52°27' W 128°28'0 0.0
2017-Jun-21 23:07N 52°27' W 128°28'220.1
2017-Jun-21 23:00N 52°25' W 128°30'917.3
2017-Jun-21 22:30N 52°16' W 128°31'1419.9
2017-Jun-21 21:50N 52°13' W 128°09'5 2.6
2017-Jun-21 19:53N 52°08' W 128°08'915.8
2017-Jun-21 19:19N 52°04' W 127°56'619.7
2017-Jun-21 19:00N 51°58' W 127°56'1020.4
2017-Jun-21 18:31N 51°47' W 127°56'1019.9
2017-Jun-21 18:00N 51°38' W 127°53'1120.0
2017-Jun-21 17:29N 51°27' W 127°51'22 1.8
2017-Jun-21 04:48N 51°05' W 127°48'719.8
2017-Jun-21 04:26N 51°12' W 127°52'1119.3
2017-Jun-21 03:53N 51°22' W 127°51'819.7
2017-Jun-21 03:30N 51°30' W 127°51'1020.2
2017-Jun-21 03:00N 51°40' W 127°54'1020.3
2017-Jun-21 02:30N 51°50' W 127°55'1019.8
2017-Jun-21 02:00N 52°00' W 127°56'29 1.1
2017-Jun-19 22:56N 52°19' W 128°30'18 5.9
2017-Jun-19 19:54N 52°08' W 128°08'817.2
2017-Jun-19 19:25N 52°04' W 127°56'819.2
2017-Jun-19 19:00N 51°56' W 127°56'1020.6
2017-Jun-19 18:30N 51°46' W 127°55'1020.0
2017-Jun-19 18:00N 51°36' W 127°52'1019.7
2017-Jun-19 17:30N 51°26' W 127°51'101 2.3
2017-Jun-17 20:48N 50°22' W 125°46'515.3
2017-Jun-17 20:30N 50°22' W 125°39'816.6
2017-Jun-17 20:00N 50°20' W 125°27'917.0
2017-Jun-17 19:30N 50°12' W 125°22'918.3
2017-Jun-17 19:00N 50°04' W 125°16'713.7
2017-Jun-17 18:30N 49°58' W 125°11'4 8.3
2017-Jun-17 18:00N 49°56' W 125°05'4 8.1
2017-Jun-17 17:30N 49°53' W 125°01'4 8.3
2017-Jun-17 17:00N 49°50' W 124°56'5 9.2
2017-Jun-17 16:30N 49°47' W 124°51'5 9.3
2017-Jun-17 16:00N 49°45' W 124°45'5 9.2
2017-Jun-17 15:30N 49°42' W 124°39'5 8.8
2017-Jun-17 15:00N 49°39' W 124°33'5 9.0
2017-Jun-17 14:27N 49°36' W 124°27'18 8.2
2017-Jun-17 12:13N 49°26' W 124°03'13 8.0
2017-Jun-17 10:36N 49°20' W 123°46'215.1
2017-Jun-17 10:29N 49°19' W 123°44'1020.5
2017-Jun-17 10:00N 49°11' W 123°35'715.0
2017-Jun-17 09:30N 49°06' W 123°27'5 9.4
2017-Jun-17 09:00N 49°05' W 123°20'0 0.8
2017-Jun-17 08:25N 49°05' W 123°20'0 0.7
2017-Jun-17 08:00N 49°05' W 123°19'1 2.9
2017-Jun-17 07:30N 49°04' W 123°21'510.0
2017-Jun-17 07:00N 49°06' W 123°28'0 0.6
2017-Jun-17 06:30N 49°06' W 123°28'714.8
2017-Jun-17 06:00N 49°07' W 123°17'510.6
2017-Jun-17 05:30N 49°07' W 123°09'3 5.3
2017-Jun-17 05:00N 49°07' W 123°05'0 0.4
2017-Jun-17 04:30N 49°07' W 123°05'0 0.0
2017-Jun-17 04:00N 49°07' W 123°05'0 0.0
2017-Jun-17 03:30N 49°07' W 123°05'0 0.0
2017-Jun-17 03:00N 49°07' W 123°05'0 0.0
2017-Jun-17 02:30N 49°07' W 123°05'0 0.0
2017-Jun-17 02:01N 49°07' W 123°05'0 0.0
2017-Jun-17 01:30N 49°07' W 123°05'0 0.0
2017-Jun-17 01:00N 49°07' W 123°05'0 0.0
2017-Jun-17 00:29N 49°07' W 123°05'0 0.0
2017-Jun-17 00:00N 49°07' W 123°05'0 0.0
2017-Jun-16 23:29N 49°07' W 123°05'0 0.0
2017-Jun-16 23:01N 49°07' W 123°05'0 0.0
2017-Jun-16 22:28N 49°07' W 123°05'0 0.0
2017-Jun-16 21:51N 49°07' W 123°05'0 0.0
2017-Jun-16 21:30N 49°07' W 123°05'0 0.0
2017-Jun-16 20:58N 49°07' W 123°05'0 0.0
2017-Jun-16 20:28N 49°07' W 123°05'0 0.0
2017-Jun-16 20:00N 49°07' W 123°05'0 0.0
2017-Jun-16 19:28N 49°07' W 123°05'0 0.0
2017-Jun-16 18:58N 49°07' W 123°05'0 0.0
2017-Jun-16 18:30N 49°07' W 123°05'0 0.0
2017-Jun-16 18:00N 49°07' W 123°05'0 0.0
2017-Jun-16 17:30N 49°07' W 123°05'0 0.0
2017-Jun-16 17:00N 49°07' W 123°05'0 0.0
2017-Jun-16 16:29N 49°07' W 123°05'0 0.0
2017-Jun-16 15:59N 49°07' W 123°05'0 0.0
2017-Jun-16 15:26N 49°07' W 123°05'0 0.0
2017-Jun-16 14:59N 49°07' W 123°05'0 0.0
2017-Jun-16 14:25N 49°07' W 123°05'0 0.0
2017-Jun-16 13:19N 49°07' W 123°05'0 0.0
2017-Jun-16 12:31N 49°07' W 123°05'0 0.0
2017-Jun-16 03:54N 49°07' W 123°05'0 0.0
2017-Jun-16 03:24N 49°07' W 123°05'0 0.0
2017-Jun-16 01:59N 49°07' W 123°05'0 0.0
2017-Jun-16 01:29N 49°07' W 123°05'0 0.0
2017-Jun-16 00:59N 49°07' W 123°05'0 0.0
2017-Jun-16 00:22N 49°07' W 123°05'0 0.0
2017-Jun-15 23:40N 49°07' W 123°05'0 0.0
2017-Jun-15 23:28N 49°07' W 123°05'0 0.0
2017-Jun-15 22:58N 49°07' W 123°05'0 0.0
2017-Jun-15 22:28N 49°07' W 123°05'0 0.0
2017-Jun-15 22:00N 49°07' W 123°05'0 0.0
2017-Jun-15 21:30N 49°07' W 123°05'0 0.0
2017-Jun-15 21:00N 49°07' W 123°05'0 0.0
2017-Jun-15 20:30N 49°07' W 123°05'0 0.0
2017-Jun-15 20:00N 49°07' W 123°05'0 0.0
2017-Jun-15 19:29N 49°07' W 123°05'0 0.0
2017-Jun-15 18:59N 49°07' W 123°05'0 0.0
2017-Jun-15 18:29N 49°07' W 123°05'0 0.0
2017-Jun-15 17:59N 49°07' W 123°05'0 0.0
2017-Jun-15 17:28N 49°07' W 123°05'0 0.0
2017-Jun-15 16:58N 49°07' W 123°05'0 0.0
2017-Jun-15 16:28N 49°07' W 123°05'0 0.0
2017-Jun-15 15:55N 49°07' W 123°05'0 0.0
2017-Jun-15 15:28N 49°07' W 123°05'0 0.0
2017-Jun-15 15:00N 49°07' W 123°05'0 0.0
2017-Jun-15 14:30N 49°07' W 123°05'0 0.0
2017-Jun-15 13:30N 49°07' W 123°05'0 0.0
2017-Jun-15 12:59N 49°07' W 123°05'0 0.0
2017-Jun-15 12:26N 49°07' W 123°05'0 0.0
2017-Jun-15 11:59N 49°07' W 123°05'0 0.0
2017-Jun-15 11:23N 49°07' W 123°05'0 0.0
2017-Jun-15 10:53N 49°07' W 123°05'0 0.0
2017-Jun-15 10:22N 49°07' W 123°05'0 0.0
2017-Jun-15 09:58N 49°07' W 123°05'0 0.0
2017-Jun-15 09:28N 49°07' W 123°05'0 0.0
2017-Jun-15 07:15N 49°07' W 123°05'0 0.0
2017-Jun-15 06:15N 49°07' W 123°05'0 0.0
2017-Jun-15 05:50N 49°07' W 123°05'0 0.0
2017-Jun-15 04:32N 49°07' W 123°05'0 0.0
2017-Jun-15 04:26N 49°07' W 123°05'0 0.0
2017-Jun-15 03:59N 49°07' W 123°05'0 0.0
2017-Jun-15 02:55N 49°07' W 123°05'0 0.0
2017-Jun-15 02:25N 49°07' W 123°05'0 0.0
2017-Jun-15 01:55N 49°07' W 123°05'0 0.0
2017-Jun-15 01:24N 49°07' W 123°05'0 0.0
2017-Jun-15 00:48N 49°07' W 123°05'0 0.0
2017-Jun-15 00:30N 49°07' W 123°05'0 0.0
2017-Jun-14 23:54N 49°07' W 123°05'0 0.0
2017-Jun-14 23:30N 49°07' W 123°05'0 0.0
2017-Jun-14 22:59N 49°07' W 123°05'0 0.0
2017-Jun-14 22:29N 49°07' W 123°05'0 0.0
2017-Jun-14 21:59N 49°07' W 123°05'0 0.0
2017-Jun-14 21:29N 49°07' W 123°05'0 0.0
2017-Jun-14 20:59N 49°07' W 123°05'0 0.0
2017-Jun-14 20:28N 49°07' W 123°05'0 0.0
2017-Jun-14 19:55N 49°07' W 123°05'0 0.0
2017-Jun-14 19:28N 49°07' W 123°05'0 0.0
2017-Jun-14 18:55N 49°07' W 123°05'0 0.0
2017-Jun-14 18:30N 49°07' W 123°05'0 0.0
2017-Jun-14 17:57N 49°07' W 123°05'0 0.0
2017-Jun-14 17:30N 49°07' W 123°05'0 0.0
2017-Jun-14 17:00N 49°07' W 123°05'0 0.0
2017-Jun-14 16:30N 49°07' W 123°05'0 0.0
2017-Jun-14 15:59N 49°07' W 123°05'0 0.0
2017-Jun-14 15:23N 49°07' W 123°05'0 0.0
2017-Jun-14 14:59N 49°07' W 123°05'0 0.0
2017-Jun-14 14:29N 49°07' W 123°05'0 0.0
2017-Jun-14 13:28N 49°07' W 123°05'0 0.0
2017-Jun-14 12:58N 49°07' W 123°05'0 0.0
2017-Jun-14 12:25N 49°07' W 123°05'0 0.0
2017-Jun-14 11:58N 49°07' W 123°05'0 0.0
2017-Jun-14 11:30N 49°07' W 123°05'0 0.0
2017-Jun-14 10:57N 49°07' W 123°05'0 0.0
2017-Jun-14 10:30N 49°07' W 123°05'0 0.0
2017-Jun-14 10:00N 49°07' W 123°05'0 0.0
2017-Jun-14 09:27N 49°07' W 123°05'0 0.0
2017-Jun-14 08:59N 49°07' W 123°05'0 0.0
2017-Jun-14 08:23N 49°07' W 123°05'0 0.0
2017-Jun-14 07:59N 49°07' W 123°05'0 0.0
2017-Jun-14 07:26N 49°07' W 123°05'0 0.0
2017-Jun-14 06:58N 49°07' W 123°05'0 0.0
2017-Jun-14 06:28N 49°07' W 123°05'0 0.0
2017-Jun-14 05:58N 49°07' W 123°05'0 0.0
2017-Jun-14 05:28N 49°07' W 123°05'0 0.0
2017-Jun-14 04:58N 49°07' W 123°05'0 0.0
2017-Jun-14 04:30N 49°07' W 123°05'0 0.0
2017-Jun-14 04:00N 49°07' W 123°05'0 0.0
2017-Jun-14 03:24N 49°07' W 123°05'0 0.0
2017-Jun-14 02:36N 49°07' W 123°05'0 0.0
2017-Jun-14 02:08N 49°07' W 123°05'0 0.0
2017-Jun-14 01:59N 49°07' W 123°05'0 0.0
2017-Jun-14 01:29N 49°07' W 123°05'0 0.0
2017-Jun-14 00:59N 49°07' W 123°05'0 0.0
2017-Jun-14 00:29N 49°07' W 123°05'0 0.0
2017-Jun-13 23:58N 49°07' W 123°05'0 0.0
2017-Jun-13 23:25N 49°07' W 123°05'0 0.0
2017-Jun-13 22:58N 49°07' W 123°05'0 0.0
2017-Jun-13 22:28N 49°07' W 123°05'0 0.0
2017-Jun-13 21:58N 49°07' W 123°05'0 0.0
2017-Jun-13 21:30N 49°07' W 123°05'  

Dump ship's entire track history